createdAt,value
2022-09-29T00:00:28.876Z,0
2022-09-29T00:01:22.460Z,0
2022-09-29T00:02:25.055Z,0
2022-09-29T00:03:29.080Z,0
2022-09-29T00:04:28.010Z,0
2022-09-29T00:05:22.618Z,0
2022-09-29T00:06:25.025Z,0
2022-09-29T00:07:28.828Z,0
2022-09-29T00:08:25.873Z,0
2022-09-29T00:09:28.133Z,0
2022-09-29T00:10:21.809Z,0
2022-09-29T00:11:25.901Z,0
2022-09-29T00:12:20.249Z,0
2022-09-29T00:13:31.053Z,0
2022-09-29T00:14:20.956Z,0
2022-09-29T00:15:24.584Z,0
2022-09-29T00:16:22.770Z,0
2022-09-29T00:17:26.727Z,0
2022-09-29T00:18:24.396Z,0
2022-09-29T00:19:21.766Z,0
2022-09-29T00:20:31.031Z,0
2022-09-29T00:21:27.749Z,0
2022-09-29T00:22:22.127Z,0
2022-09-29T00:23:23.514Z,0
2022-09-29T00:24:30.387Z,0
2022-09-29T00:25:24.820Z,0
2022-09-29T00:26:21.259Z,0
2022-09-29T00:27:31.189Z,0
2022-09-29T00:28:28.177Z,0
2022-09-29T00:29:23.542Z,0
2022-09-29T00:30:26.805Z,0
2022-09-29T00:31:28.564Z,0
2022-09-29T00:32:28.135Z,0
2022-09-29T00:33:20.167Z,0
2022-09-29T00:34:23.135Z,0
2022-09-29T00:35:28.490Z,0
2022-09-29T00:36:27.890Z,0
2022-09-29T00:37:32.348Z,0
2022-09-29T00:38:32.390Z,0
2022-09-29T00:39:24.522Z,0
2022-09-29T00:40:24.405Z,0
2022-09-29T00:41:24.923Z,0
2022-09-29T00:42:26.511Z,0
2022-09-29T00:43:23.062Z,0
2022-09-29T00:44:22.832Z,0
2022-09-29T00:45:20.438Z,0
2022-09-29T00:46:26.226Z,0
2022-09-29T00:47:20.840Z,0
2022-09-29T00:48:20.496Z,0
2022-09-29T00:49:29.179Z,0
2022-09-29T00:50:22.545Z,0
2022-09-29T00:51:27.018Z,0
2022-09-29T00:52:23.764Z,0
2022-09-29T00:53:24.473Z,0
2022-09-29T00:54:22.121Z,0
2022-09-29T00:55:23.534Z,0
2022-09-29T00:56:26.335Z,0
2022-09-29T00:57:24.786Z,0
2022-09-29T00:58:32.190Z,0
2022-09-29T00:59:28.223Z,0
2022-09-29T01:00:32.793Z,0
2022-09-29T01:01:28.555Z,0
2022-09-29T02:17:27.786Z,0
2022-09-29T02:18:24.408Z,0
2022-09-29T02:19:26.284Z,0
2022-09-29T02:20:30.340Z,0
2022-09-29T03:33:36.419Z,0
2022-09-29T03:34:39.625Z,0
2022-09-29T03:35:22.146Z,0
2022-09-29T03:37:50.412Z,0
2022-09-29T03:38:07.611Z,0
2022-09-29T03:39:21.754Z,0
2022-09-29T03:40:28.936Z,0
2022-09-29T03:41:25.633Z,0
2022-09-29T03:42:21.490Z,0
2022-09-29T03:43:31.703Z,0
2022-09-29T03:44:26.870Z,0
2022-09-29T03:45:23.431Z,0
2022-09-29T03:46:26.515Z,0
2022-09-29T03:47:28.693Z,0
2022-09-29T03:48:28.184Z,0
2022-09-29T03:49:20.635Z,0
2022-09-29T03:50:33.462Z,0
2022-09-29T03:51:29.234Z,0
2022-09-29T03:52:26.788Z,0
2022-09-29T03:53:20.822Z,0
2022-09-29T03:54:24.015Z,0
2022-09-29T03:55:45.556Z,0
2022-09-29T03:56:23.462Z,0
2022-09-29T03:57:21.843Z,0
2022-09-29T03:58:26.842Z,0
2022-09-29T03:59:24.217Z,0
2022-09-29T04:00:22.898Z,0
2022-09-29T04:01:30.517Z,0
2022-09-29T04:02:24.631Z,0
2022-09-29T04:03:25.294Z,0
2022-09-29T04:04:28.619Z,0
2022-09-29T04:05:22.765Z,0
2022-09-29T04:06:24.899Z,0
2022-09-29T04:07:25.644Z,0
2022-09-29T04:08:30.885Z,0
2022-09-29T04:09:28.604Z,0
2022-09-29T04:10:20.609Z,0
2022-09-29T04:11:21.648Z,0
2022-09-29T04:12:26.905Z,0
2022-09-29T04:13:25.089Z,0
2022-09-29T04:14:28.729Z,0
2022-09-29T04:15:28.344Z,0
2022-09-29T04:16:26.847Z,0
2022-09-29T04:17:23.260Z,0
2022-09-29T04:18:23.633Z,0
2022-09-29T04:19:26.862Z,0
2022-09-29T04:20:21.063Z,0
2022-09-29T04:21:32.606Z,0
2022-09-29T04:22:22.934Z,0
2022-09-29T04:23:29.286Z,0
2022-09-29T04:24:20.751Z,0
2022-09-29T04:25:29.961Z,0
2022-09-29T04:26:27.679Z,0
2022-09-29T04:27:23.605Z,0
2022-09-29T04:28:30.914Z,0
2022-09-29T04:29:24.330Z,0
2022-09-29T04:30:26.306Z,0
2022-09-29T04:31:21.352Z,0
2022-09-29T04:32:24.674Z,0
2022-09-29T04:33:23.759Z,0
2022-09-29T04:34:26.280Z,0
2022-09-29T04:35:24.245Z,0
2022-09-29T04:36:28.260Z,0
2022-09-29T04:37:26.133Z,0
2022-09-29T04:38:20.496Z,0
2022-09-29T04:39:28.032Z,0
2022-09-29T04:40:21.407Z,0
2022-09-29T04:41:22.528Z,0
2022-09-29T04:42:24.696Z,0
2022-09-29T04:43:28.767Z,0
2022-09-29T04:44:25.857Z,0
2022-09-29T04:45:21.570Z,0
2022-09-29T04:46:33.049Z,0
2022-09-29T04:47:24.546Z,0
2022-09-29T04:48:22.432Z,0
2022-09-29T04:49:28.474Z,0
2022-09-29T04:50:21.448Z,0
2022-09-29T04:51:24.843Z,0
2022-09-29T04:52:24.010Z,0
2022-09-29T04:53:34.723Z,0
2022-09-29T04:54:26.869Z,0
2022-09-29T04:55:22.517Z,0
2022-09-29T04:56:26.730Z,0
2022-09-29T04:57:25.338Z,0
2022-09-29T04:58:21.745Z,0
2022-09-29T04:59:24.444Z,0
2022-09-29T05:00:30.560Z,0
2022-09-29T05:01:31.315Z,0
2022-09-29T05:02:27.792Z,0
2022-09-29T05:03:32.591Z,0
2022-09-29T05:04:32.060Z,0
2022-09-29T05:05:24.928Z,0
2022-09-29T05:06:22.415Z,0
2022-09-29T05:07:23.770Z,0
2022-09-29T05:08:29.424Z,0
2022-09-29T05:09:32.967Z,0
2022-09-29T05:10:22.542Z,0
2022-09-29T05:11:32.235Z,0
2022-09-29T05:12:27.934Z,0
2022-09-29T05:13:20.713Z,0
2022-09-29T05:14:33.540Z,-0
2022-09-29T05:15:44.490Z,0
2022-09-29T05:16:24.567Z,0
2022-09-29T05:17:25.082Z,0
2022-09-29T05:18:25.452Z,0
2022-09-29T05:19:34.766Z,0
2022-09-29T05:20:32.434Z,0
2022-09-29T05:21:49.236Z,0
2022-09-29T05:22:28.117Z,0
2022-09-29T05:23:31.433Z,0
2022-09-29T05:24:28.847Z,0
2022-09-29T05:25:24.844Z,0
2022-09-29T05:26:36.956Z,0
2022-09-29T05:27:20.693Z,0
2022-09-29T05:28:23.714Z,0
2022-09-29T05:29:29.711Z,0
2022-09-29T05:30:22.649Z,0
2022-09-29T05:31:33.436Z,0
2022-09-29T05:32:29.966Z,0
2022-09-29T05:33:38.113Z,0
2022-09-29T05:34:23.597Z,0
2022-09-29T05:35:27.699Z,0
2022-09-29T05:36:26.429Z,0
2022-09-29T05:37:24.007Z,0
2022-09-29T05:38:38.844Z,0
2022-09-29T05:39:31.740Z,0
2022-09-29T05:40:25.452Z,0
2022-09-29T05:41:21.073Z,0
2022-09-29T05:42:31.014Z,0
2022-09-29T05:43:23.663Z,0
2022-09-29T05:44:22.445Z,0
2022-09-29T05:45:20.695Z,0
2022-09-29T05:46:21.638Z,0
2022-09-29T05:47:25.180Z,0
2022-09-29T05:48:31.969Z,0
2022-09-29T05:49:32.859Z,0
2022-09-29T05:50:26.950Z,0
2022-09-29T05:51:55.000Z,0
2022-09-29T05:52:28.106Z,0
2022-09-29T05:53:28.748Z,0
2022-09-29T05:54:28.272Z,0
2022-09-29T05:55:23.518Z,0
2022-09-29T05:56:31.644Z,0
2022-09-29T05:57:32.378Z,0
2022-09-29T05:58:22.423Z,0
2022-09-29T05:59:27.592Z,0
2022-09-29T06:00:44.267Z,0
2022-09-29T06:01:27.268Z,0
2022-09-29T06:02:30.348Z,0
2022-09-29T06:03:25.278Z,0
2022-09-29T06:04:27.960Z,0
2022-09-29T06:05:29.753Z,0
2022-09-29T06:06:22.364Z,0
2022-09-29T06:07:45.800Z,0
2022-09-29T06:08:43.873Z,0
2022-09-29T06:09:24.906Z,0
2022-09-29T06:10:30.781Z,0
2022-09-29T06:11:26.721Z,0
2022-09-29T06:12:30.837Z,0
2022-09-29T06:13:27.925Z,0
2022-09-29T06:14:19.791Z,0
2022-09-29T06:15:32.756Z,0
2022-09-29T06:16:40.403Z,0
2022-09-29T06:17:29.896Z,0
2022-09-29T06:18:28.537Z,0
2022-09-29T06:19:26.415Z,0
2022-09-29T06:20:23.495Z,0
2022-09-29T06:21:25.311Z,0
2022-09-29T06:22:25.446Z,0
2022-09-29T06:23:43.657Z,0
2022-09-29T06:24:37.778Z,0
2022-09-29T06:25:28.482Z,0
2022-09-29T06:26:24.580Z,0
2022-09-29T06:27:35.665Z,0
2022-09-29T06:28:30.480Z,0
2022-09-29T06:29:24.837Z,0
2022-09-29T06:30:20.679Z,0
2022-09-29T06:31:23.676Z,0
2022-09-29T06:32:23.570Z,0
2022-09-29T06:33:24.605Z,0
2022-09-29T06:34:35.467Z,1
2022-09-29T06:35:43.976Z,1
2022-09-29T06:36:25.250Z,1
2022-09-29T06:37:20.687Z,1
2022-09-29T06:38:32.453Z,1
2022-09-29T06:39:31.634Z,1
2022-09-29T06:40:25.274Z,1
2022-09-29T06:41:25.051Z,1
2022-09-29T06:42:32.320Z,1
2022-09-29T06:43:27.145Z,1
2022-09-29T06:44:21.417Z,1
2022-09-29T06:45:43.366Z,1
2022-09-29T06:46:43.017Z,1
2022-09-29T06:47:23.009Z,1
2022-09-29T06:48:25.195Z,1
2022-09-29T06:49:28.874Z,1
2022-09-29T06:50:24.571Z,1
2022-09-29T06:51:33.642Z,1
2022-09-29T06:52:32.985Z,1
2022-09-29T06:53:38.049Z,1
2022-09-29T06:54:22.507Z,1
2022-09-29T06:55:34.620Z,1
2022-09-29T06:56:24.178Z,1
2022-09-29T06:57:36.063Z,1
2022-09-29T06:58:22.937Z,1
2022-09-29T06:59:30.964Z,1
2022-09-29T07:00:32.171Z,1
2022-09-29T07:01:25.955Z,1
2022-09-29T07:02:35.669Z,1
2022-09-29T07:03:31.948Z,1
2022-09-29T07:04:20.962Z,1
2022-09-29T07:05:21.430Z,2
2022-09-29T07:06:24.672Z,2
2022-09-29T07:07:26.737Z,2
2022-09-29T07:08:38.076Z,2
2022-09-29T07:09:33.003Z,2
2022-09-29T07:10:31.343Z,2
2022-09-29T07:11:26.058Z,2
2022-09-29T07:12:22.006Z,2
2022-09-29T07:13:27.720Z,2
2022-09-29T07:14:20.616Z,2
2022-09-29T07:15:25.541Z,2
2022-09-29T07:16:25.892Z,2
2022-09-29T07:17:34.014Z,2
2022-09-29T07:18:28.311Z,2
2022-09-29T07:19:22.967Z,2
2022-09-29T07:20:36.408Z,2
2022-09-29T07:21:27.878Z,2
2022-09-29T07:22:22.770Z,2
2022-09-29T07:23:33.853Z,2
2022-09-29T07:24:29.687Z,2
2022-09-29T07:25:49.929Z,2
2022-09-29T07:26:26.709Z,2
2022-09-29T07:27:30.543Z,2
2022-09-29T07:28:31.493Z,2
2022-09-29T07:29:26.054Z,2
2022-09-29T07:30:40.391Z,2
2022-09-29T07:31:29.527Z,2
2022-09-29T07:32:28.845Z,2
2022-09-29T07:33:35.894Z,2
2022-09-29T07:34:24.432Z,2
2022-09-29T07:35:26.662Z,2
2022-09-29T07:36:29.142Z,2
2022-09-29T07:37:22.155Z,2
2022-09-29T07:38:30.680Z,1
2022-09-29T07:39:25.663Z,1
2022-09-29T07:40:22.399Z,1
2022-09-29T07:41:32.790Z,1
2022-09-29T07:42:20.041Z,1
2022-09-29T07:43:23.928Z,1
2022-09-29T07:44:31.509Z,1
2022-09-29T07:45:29.640Z,1
2022-09-29T07:46:27.025Z,1
2022-09-29T07:47:22.238Z,1
2022-09-29T07:48:32.516Z,2
2022-09-29T07:49:29.898Z,2
2022-09-29T07:50:25.151Z,2
2022-09-29T07:51:33.743Z,2
2022-09-29T07:52:23.052Z,2
2022-09-29T07:53:27.149Z,2
2022-09-29T07:54:25.788Z,2
2022-09-29T07:55:25.302Z,2
2022-09-29T07:56:30.479Z,2
2022-09-29T07:57:23.896Z,2
2022-09-29T07:58:33.319Z,2
2022-09-29T07:59:23.712Z,2
2022-09-29T08:00:24.528Z,2
2022-09-29T08:01:22.585Z,2
2022-09-29T08:02:26.898Z,2
2022-09-29T08:03:29.344Z,2
2022-09-29T08:04:25.274Z,2
2022-09-29T08:05:34.196Z,2
2022-09-29T08:06:20.426Z,2
2022-09-29T08:07:24.564Z,2
2022-09-29T08:08:25.537Z,2
2022-09-29T08:09:40.389Z,3
2022-09-29T08:10:32.421Z,3
2022-09-29T08:11:31.151Z,3
2022-09-29T08:12:22.265Z,3
2022-09-29T08:13:23.528Z,3
2022-09-29T08:14:24.966Z,3
2022-09-29T08:15:22.831Z,3
2022-09-29T08:16:33.557Z,3
2022-09-29T08:17:30.219Z,3
2022-09-29T08:18:26.710Z,3
2022-09-29T08:19:26.355Z,3
2022-09-29T08:20:19.877Z,3
2022-09-29T08:21:26.383Z,3
2022-09-29T08:22:23.527Z,3
2022-09-29T08:23:32.363Z,3
2022-09-29T08:24:21.583Z,3
2022-09-29T08:25:24.224Z,3
2022-09-29T08:26:42.647Z,3
2022-09-29T08:27:23.820Z,3
2022-09-29T08:28:31.329Z,3
2022-09-29T08:29:22.295Z,3
2022-09-29T08:30:30.685Z,3
2022-09-29T08:31:28.246Z,3
2022-09-29T08:32:22.879Z,3
2022-09-29T08:33:35.606Z,3
2022-09-29T08:34:30.042Z,3
2022-09-29T08:35:23.570Z,3
2022-09-29T08:36:21.880Z,3
2022-09-29T08:37:31.972Z,3
2022-09-29T08:38:27.817Z,3
2022-09-29T08:39:24.781Z,3
2022-09-29T08:40:36.985Z,3
2022-09-29T08:41:32.870Z,3
2022-09-29T08:42:25.382Z,3
2022-09-29T08:43:31.626Z,4
2022-09-29T08:44:46.363Z,4
2022-09-29T08:45:28.014Z,4
2022-09-29T08:46:34.321Z,4
2022-09-29T08:47:47.029Z,4
2022-09-29T08:48:29.435Z,4
2022-09-29T08:49:33.071Z,4
2022-09-29T08:50:22.140Z,4
2022-09-29T08:51:41.761Z,5
2022-09-29T08:52:27.497Z,5
2022-09-29T08:53:28.597Z,5
2022-09-29T08:54:39.245Z,5
2022-09-29T08:55:30.650Z,5
2022-09-29T08:56:24.577Z,5
2022-09-29T08:57:21.015Z,5
2022-09-29T08:58:38.573Z,5
2022-09-29T08:59:31.089Z,5
2022-09-29T09:00:23.684Z,5
2022-09-29T09:01:32.959Z,5
2022-09-29T09:02:30.566Z,5
2022-09-29T09:03:28.081Z,5
2022-09-29T09:04:20.781Z,5
2022-09-29T09:05:24.331Z,5
2022-09-29T09:06:28.447Z,5
2022-09-29T09:07:26.925Z,6
2022-09-29T09:08:38.091Z,6
2022-09-29T09:09:35.622Z,6
2022-09-29T09:10:27.065Z,6
2022-09-29T09:11:21.610Z,7
2022-09-29T09:12:29.269Z,7
2022-09-29T09:13:23.264Z,7
2022-09-29T09:14:23.224Z,7
2022-09-29T09:15:22.343Z,7
2022-09-29T09:16:29.051Z,7
2022-09-29T09:17:27.274Z,7
2022-09-29T09:18:22.663Z,6
2022-09-29T09:19:33.312Z,6
2022-09-29T09:20:29.304Z,6
2022-09-29T09:21:27.652Z,6
2022-09-29T09:22:25.655Z,6
2022-09-29T09:23:29.766Z,6
2022-09-29T09:24:27.389Z,6
2022-09-29T09:25:21.071Z,5
2022-09-29T09:26:32.115Z,5
2022-09-29T09:27:30.489Z,5
2022-09-29T09:28:24.854Z,5
2022-09-29T09:29:31.606Z,5
2022-09-29T09:30:22.509Z,5
2022-09-29T09:31:25.899Z,5
2022-09-29T09:32:20.980Z,5
2022-09-29T09:33:31.863Z,5
2022-09-29T09:34:39.574Z,5
2022-09-29T09:35:24.707Z,4
2022-09-29T09:36:33.711Z,4
2022-09-29T09:37:33.442Z,4
2022-09-29T09:38:25.757Z,4
2022-09-29T09:39:23.101Z,4
2022-09-29T09:40:22.812Z,4
2022-09-29T09:41:26.690Z,4
2022-09-29T09:42:26.041Z,4
2022-09-29T09:43:23.099Z,4
2022-09-29T09:44:30.112Z,5
2022-09-29T09:45:28.240Z,5
2022-09-29T09:46:23.627Z,5
2022-09-29T09:47:28.154Z,5
2022-09-29T09:48:31.685Z,5
2022-09-29T09:49:25.052Z,5
2022-09-29T09:50:31.766Z,5
2022-09-29T09:51:24.477Z,5
2022-09-29T09:52:27.299Z,5
2022-09-29T09:53:22.407Z,5
2022-09-29T09:54:26.830Z,5
2022-09-29T09:55:27.960Z,5
2022-09-29T09:56:24.016Z,5
2022-09-29T09:57:36.075Z,5
2022-09-29T09:58:26.640Z,5
2022-09-29T09:59:25.880Z,5
2022-09-29T10:00:22.525Z,5
2022-09-29T10:01:31.074Z,5
2022-09-29T10:02:26.697Z,5
2022-09-29T10:03:25.186Z,5
2022-09-29T10:04:38.907Z,5
2022-09-29T10:05:24.870Z,5
2022-09-29T10:06:21.413Z,6
2022-09-29T10:07:24.175Z,6
2022-09-29T10:08:21.796Z,6
2022-09-29T10:09:20.169Z,7
2022-09-29T10:10:23.905Z,7
2022-09-29T10:11:34.831Z,8
2022-09-29T10:12:30.175Z,9
2022-09-29T10:13:27.043Z,9
2022-09-29T10:14:21.388Z,9
2022-09-29T10:15:25.566Z,9
2022-09-29T10:16:28.453Z,9
2022-09-29T10:17:22.594Z,9
2022-09-29T10:18:33.840Z,8
2022-09-29T10:19:30.859Z,8
2022-09-29T10:20:26.878Z,7
2022-09-29T10:21:23.171Z,7
2022-09-29T10:22:33.436Z,7
2022-09-29T10:23:25.702Z,7
2022-09-29T10:24:23.303Z,7
2022-09-29T10:25:36.322Z,7
2022-09-29T10:26:30.748Z,7
2022-09-29T10:27:26.853Z,7
2022-09-29T10:28:22.883Z,7
2022-09-29T10:29:21.239Z,8
2022-09-29T10:30:33.602Z,8
2022-09-29T10:31:22.945Z,8
2022-09-29T10:32:32.812Z,8
2022-09-29T10:33:30.830Z,8
2022-09-29T10:34:24.919Z,8
2022-09-29T10:35:26.350Z,9
2022-09-29T10:36:24.460Z,10
2022-09-29T10:37:27.147Z,10
2022-09-29T10:38:23.680Z,11
2022-09-29T10:39:34.675Z,12
2022-09-29T10:40:32.405Z,13
2022-09-29T10:41:29.179Z,14
2022-09-29T10:42:20.996Z,14
2022-09-29T10:43:32.721Z,15
2022-09-29T10:44:29.960Z,16
2022-09-29T10:45:24.662Z,17
2022-09-29T10:46:24.091Z,17
2022-09-29T10:47:32.811Z,16
2022-09-29T10:48:28.149Z,15
2022-09-29T10:49:21.775Z,14
2022-09-29T10:50:36.814Z,14
2022-09-29T10:51:28.331Z,13
2022-09-29T10:52:29.520Z,14
2022-09-29T10:53:24.357Z,15
2022-09-29T10:54:28.629Z,16
2022-09-29T10:55:21.268Z,16
2022-09-29T10:56:21.993Z,16
2022-09-29T10:57:32.118Z,16
2022-09-29T10:58:44.488Z,16
2022-09-29T10:59:27.912Z,16
2022-09-29T11:00:30.974Z,16
2022-09-29T11:01:23.988Z,16
2022-09-29T11:02:24.774Z,15
2022-09-29T11:03:22.873Z,15
2022-09-29T11:04:34.968Z,15
2022-09-29T11:05:27.534Z,15
2022-09-29T11:06:22.821Z,15
2022-09-29T11:07:20.907Z,14
2022-09-29T11:08:25.420Z,15
2022-09-29T11:09:25.981Z,15
2022-09-29T11:10:31.885Z,15
2022-09-29T11:11:30.956Z,15
2022-09-29T11:12:25.144Z,15
2022-09-29T11:13:23.711Z,14
2022-09-29T11:14:25.514Z,13
2022-09-29T11:15:32.600Z,12
2022-09-29T11:16:27.525Z,12
2022-09-29T11:17:23.242Z,11
2022-09-29T11:18:28.777Z,11
2022-09-29T11:19:28.668Z,10
2022-09-29T11:20:22.763Z,10
2022-09-29T11:21:25.258Z,10
2022-09-29T11:22:21.389Z,10
2022-09-29T11:23:20.741Z,10
2022-09-29T11:24:21.732Z,10
2022-09-29T11:25:30.841Z,10
2022-09-29T11:26:28.712Z,9
2022-09-29T11:27:25.936Z,9
2022-09-29T11:28:28.975Z,9
2022-09-29T11:29:26.733Z,9
2022-09-29T11:30:25.102Z,10
2022-09-29T11:31:23.653Z,10
2022-09-29T11:32:26.557Z,11
2022-09-29T11:33:27.135Z,12
2022-09-29T11:34:23.079Z,13
2022-09-29T11:35:34.899Z,13
2022-09-29T11:36:29.659Z,14
2022-09-29T11:37:25.307Z,15
2022-09-29T11:38:23.638Z,16
2022-09-29T11:39:20.481Z,17
2022-09-29T11:40:25.077Z,19
2022-09-29T11:41:23.093Z,22
2022-09-29T11:42:34.356Z,24
2022-09-29T11:43:23.205Z,25
2022-09-29T11:44:26.624Z,26
2022-09-29T11:45:20.957Z,25
2022-09-29T11:46:27.707Z,25
2022-09-29T11:47:27.147Z,24
2022-09-29T11:48:27.310Z,23
2022-09-29T11:49:34.620Z,23
2022-09-29T11:50:26.611Z,23
2022-09-29T11:51:24.861Z,21
2022-09-29T11:52:25.633Z,20
2022-09-29T11:53:30.920Z,19
2022-09-29T11:54:22.956Z,19
2022-09-29T11:55:22.849Z,18
2022-09-29T11:56:34.290Z,18
2022-09-29T11:57:25.821Z,18
2022-09-29T11:58:27.627Z,18
2022-09-29T11:59:21.324Z,20
2022-09-29T12:00:22.020Z,19
2022-09-29T12:01:22.624Z,19
2022-09-29T12:02:23.057Z,19
2022-09-29T12:03:30.725Z,24
2022-09-29T12:04:28.714Z,34
2022-09-29T12:05:25.650Z,47
2022-09-29T12:06:20.892Z,48
2022-09-29T12:07:25.348Z,44
2022-09-29T12:08:23.585Z,49
2022-09-29T12:09:22.991Z,52
2022-09-29T12:10:35.196Z,51
2022-09-29T12:12:11.793Z,54
2022-09-29T12:12:29.925Z,46
2022-09-29T12:13:29.056Z,47
2022-09-29T12:14:27.643Z,40
2022-09-29T12:15:22.505Z,37
2022-09-29T12:16:23.659Z,29
2022-09-29T12:17:34.628Z,36
2022-09-29T12:18:29.072Z,32
2022-09-29T12:19:24.743Z,25
2022-09-29T12:20:24.174Z,24
2022-09-29T12:21:38.707Z,28
2022-09-29T12:22:33.154Z,26
2022-09-29T12:23:19.834Z,24
2022-09-29T12:24:23.637Z,23
2022-09-29T12:25:25.164Z,22
2022-09-29T12:26:25.158Z,21
2022-09-29T12:27:22.663Z,21
2022-09-29T12:28:31.388Z,22
2022-09-29T12:29:28.694Z,23
2022-09-29T12:30:21.648Z,22
2022-09-29T12:31:30.120Z,23
2022-09-29T12:32:20.571Z,23
2022-09-29T12:33:28.795Z,24
2022-09-29T12:34:21.629Z,26
2022-09-29T12:35:34.779Z,28
2022-09-29T12:36:19.819Z,31
2022-09-29T12:37:27.271Z,33
2022-09-29T12:38:20.781Z,33
2022-09-29T12:39:26.064Z,38
2022-09-29T12:40:25.092Z,35
2022-09-29T12:41:24.544Z,35
2022-09-29T12:42:28.164Z,49
2022-09-29T12:43:30.313Z,52
2022-09-29T12:44:28.935Z,54
2022-09-29T12:45:24.933Z,56
2022-09-29T12:46:30.317Z,54
2022-09-29T12:47:22.225Z,53
2022-09-29T12:48:20.994Z,53
2022-09-29T12:49:32.374Z,51
2022-09-29T12:50:26.774Z,48
2022-09-29T12:51:24.393Z,47
2022-09-29T12:52:29.091Z,48
2022-09-29T12:53:22.794Z,49
2022-09-29T12:54:29.068Z,49
2022-09-29T12:55:26.584Z,50
2022-09-29T12:56:35.150Z,52
2022-09-29T12:57:28.937Z,51
2022-09-29T12:58:25.901Z,33
2022-09-29T12:59:28.787Z,27
2022-09-29T13:00:30.268Z,31
2022-09-29T13:01:29.738Z,35
2022-09-29T13:02:23.512Z,18
2022-09-29T13:03:31.360Z,16
2022-09-29T13:04:26.854Z,27
2022-09-29T13:05:24.040Z,22
2022-09-29T13:06:23.759Z,23
2022-09-29T13:07:32.890Z,17
2022-09-29T13:08:30.058Z,15
2022-09-29T13:09:21.305Z,12
2022-09-29T13:10:29.131Z,11
2022-09-29T13:11:29.613Z,10
2022-09-29T13:12:23.936Z,9
2022-09-29T13:13:26.568Z,10
2022-09-29T13:14:28.787Z,10
2022-09-29T13:15:29.652Z,8
2022-09-29T13:16:24.697Z,8
2022-09-29T13:17:19.847Z,8
2022-09-29T13:18:26.697Z,9
2022-09-29T13:19:45.780Z,11
2022-09-29T13:20:28.626Z,13
2022-09-29T13:21:22.457Z,14
2022-09-29T13:22:25.862Z,13
2022-09-29T13:23:20.701Z,12
2022-09-29T13:24:24.777Z,11
2022-09-29T13:25:20.451Z,14
2022-09-29T13:26:22.686Z,10
2022-09-29T13:27:28.705Z,8
2022-09-29T13:28:35.439Z,8
2022-09-29T13:29:24.778Z,7
2022-09-29T13:30:21.574Z,6
2022-09-29T13:31:34.583Z,6
2022-09-29T13:32:27.245Z,5
2022-09-29T13:33:22.971Z,5
2022-09-29T13:34:34.815Z,5
2022-09-29T13:35:23.659Z,7
2022-09-29T13:36:30.788Z,9
2022-09-29T13:37:23.412Z,17
2022-09-29T13:38:23.903Z,21
2022-09-29T13:39:30.601Z,31
2022-09-29T13:40:27.874Z,14
2022-09-29T13:41:47.560Z,12
2022-09-29T13:42:26.116Z,11
2022-09-29T13:43:26.530Z,11
2022-09-29T13:44:22.368Z,11
2022-09-29T13:45:34.297Z,13
2022-09-29T13:46:23.180Z,16
2022-09-29T13:47:26.614Z,25
2022-09-29T13:48:33.564Z,38
2022-09-29T13:49:19.996Z,45
2022-09-29T13:50:29.057Z,52
2022-09-29T13:51:24.927Z,52
2022-09-29T13:52:32.130Z,50
2022-09-29T13:53:23.416Z,48
2022-09-29T13:54:25.204Z,46
2022-09-29T13:55:28.316Z,46
2022-09-29T13:56:29.918Z,46
2022-09-29T13:57:30.770Z,45
2022-09-29T13:58:31.406Z,45
2022-09-29T13:59:33.215Z,45
2022-09-29T14:00:27.017Z,46
2022-09-29T14:01:29.338Z,45
2022-09-29T14:02:28.610Z,44
2022-09-29T14:03:28.976Z,44
2022-09-29T14:04:21.247Z,44
2022-09-29T14:05:21.045Z,43
2022-09-29T14:06:40.348Z,43
2022-09-29T14:07:29.364Z,44
2022-09-29T14:08:22.931Z,44
2022-09-29T14:09:23.504Z,40
2022-09-29T14:10:24.416Z,43
2022-09-29T14:11:24.950Z,43
2022-09-29T14:12:21.368Z,40
2022-09-29T14:13:33.083Z,32
2022-09-29T14:14:27.880Z,10
2022-09-29T14:15:24.572Z,37
2022-09-29T14:16:26.753Z,9
2022-09-29T14:17:28.765Z,8
2022-09-29T14:18:21.718Z,8
2022-09-29T14:19:21.071Z,32
2022-09-29T14:20:31.264Z,43
2022-09-29T14:21:28.250Z,21
2022-09-29T14:22:22.902Z,8
2022-09-29T14:23:24.202Z,7
2022-09-29T14:24:25.035Z,6
2022-09-29T14:25:24.809Z,5
2022-09-29T14:26:24.511Z,5
2022-09-29T14:27:33.418Z,5
2022-09-29T14:28:26.677Z,6
2022-09-29T14:29:27.183Z,6
2022-09-29T14:30:34.242Z,7
2022-09-29T14:31:31.311Z,7
2022-09-29T14:32:22.399Z,6
2022-09-29T14:33:23.302Z,13
2022-09-29T14:34:23.571Z,39
2022-09-29T14:35:31.087Z,40
2022-09-29T14:36:24.866Z,37
2022-09-29T14:37:33.810Z,14
2022-09-29T14:38:32.542Z,21
2022-09-29T14:39:27.027Z,6
2022-09-29T14:40:22.047Z,6
2022-09-29T14:41:31.097Z,7
2022-09-29T14:42:27.177Z,24
2022-09-29T14:43:34.350Z,37
2022-09-29T14:44:34.921Z,36
2022-09-29T14:45:31.187Z,36
2022-09-29T14:46:25.514Z,36
2022-09-29T14:47:21.521Z,36
2022-09-29T14:48:21.975Z,35
2022-09-29T14:49:26.999Z,35
2022-09-29T14:50:24.900Z,35
2022-09-29T14:51:24.433Z,34
2022-09-29T14:52:29.693Z,34
2022-09-29T14:53:27.121Z,32
2022-09-29T14:54:21.190Z,31
2022-09-29T14:55:26.525Z,31
2022-09-29T14:56:27.891Z,30
2022-09-29T14:57:24.014Z,30
2022-09-29T14:58:25.408Z,29
2022-09-29T14:59:30.883Z,30
2022-09-29T15:00:27.032Z,30
2022-09-29T15:01:23.300Z,30
2022-09-29T15:02:24.312Z,30
2022-09-29T15:03:27.814Z,27
2022-09-29T15:04:23.251Z,29
2022-09-29T15:05:30.899Z,29
2022-09-29T15:06:30.791Z,30
2022-09-29T15:07:24.904Z,30
2022-09-29T15:08:26.510Z,30
2022-09-29T15:09:21.216Z,20
2022-09-29T15:10:19.707Z,16
2022-09-29T15:11:23.134Z,21
2022-09-29T15:12:29.702Z,30
2022-09-29T15:13:28.849Z,31
2022-09-29T15:14:28.439Z,31
2022-09-29T15:15:21.189Z,31
2022-09-29T15:16:26.975Z,31
2022-09-29T15:17:24.589Z,30
2022-09-29T15:18:24.968Z,30
2022-09-29T15:19:26.192Z,30
2022-09-29T15:20:28.961Z,29
2022-09-29T15:21:26.126Z,28
2022-09-29T15:22:22.147Z,28
2022-09-29T15:23:27.726Z,17
2022-09-29T15:24:28.042Z,13
2022-09-29T15:25:25.773Z,11
2022-09-29T15:26:21.748Z,15
2022-09-29T15:27:23.027Z,8
2022-09-29T15:28:26.519Z,8
2022-09-29T15:29:21.170Z,10
2022-09-29T15:30:31.403Z,11
2022-09-29T15:31:26.862Z,18
2022-09-29T15:32:25.749Z,12
2022-09-29T15:33:27.192Z,8
2022-09-29T15:34:27.726Z,6
2022-09-29T15:35:25.059Z,6
2022-09-29T15:36:24.682Z,5
2022-09-29T15:37:35.017Z,5
2022-09-29T15:38:21.824Z,4
2022-09-29T15:39:24.715Z,4
2022-09-29T15:40:22.254Z,3
2022-09-29T15:41:25.096Z,3
2022-09-29T15:42:26.841Z,3
2022-09-29T15:43:20.896Z,2
2022-09-29T15:44:33.518Z,2
2022-09-29T15:45:26.543Z,2
2022-09-29T15:46:23.082Z,2
2022-09-29T15:47:23.601Z,2
2022-09-29T15:48:21.222Z,1
2022-09-29T15:49:25.360Z,1
2022-09-29T15:50:20.857Z,1
2022-09-29T15:51:34.608Z,2
2022-09-29T15:52:27.387Z,2
2022-09-29T15:53:43.195Z,2
2022-09-29T15:54:35.478Z,2
2022-09-29T15:55:24.154Z,2
2022-09-29T15:56:31.535Z,2
2022-09-29T15:57:20.735Z,1
2022-09-29T15:58:34.074Z,1
2022-09-29T15:59:31.587Z,1
2022-09-29T16:00:23.464Z,1
2022-09-29T16:01:36.768Z,2
2022-09-29T16:02:29.016Z,2
2022-09-29T16:03:28.096Z,2
2022-09-29T16:04:22.820Z,2
2022-09-29T16:05:32.777Z,2
2022-09-29T16:06:33.430Z,2
2022-09-29T16:07:25.460Z,2
2022-09-29T16:08:33.102Z,3
2022-09-29T16:09:33.249Z,5
2022-09-29T16:10:27.714Z,6
2022-09-29T16:11:26.034Z,7
2022-09-29T16:12:30.942Z,7
2022-09-29T16:13:29.886Z,8
2022-09-29T16:14:23.823Z,8
2022-09-29T16:15:21.230Z,8
2022-09-29T16:16:29.156Z,8
2022-09-29T16:17:26.108Z,9
2022-09-29T16:18:22.316Z,6
2022-09-29T16:19:22.269Z,5
2022-09-29T16:20:27.101Z,5
2022-09-29T16:21:27.382Z,4
2022-09-29T16:22:33.569Z,4
2022-09-29T16:23:28.889Z,5
2022-09-29T16:24:26.247Z,7
2022-09-29T16:25:21.205Z,7
2022-09-29T16:26:25.020Z,7
2022-09-29T16:27:29.705Z,7
2022-09-29T16:28:24.138Z,6
2022-09-29T16:29:33.290Z,3
2022-09-29T16:30:28.884Z,2
2022-09-29T16:31:29.764Z,2
2022-09-29T16:32:25.109Z,2
2022-09-29T16:33:25.436Z,2
2022-09-29T16:34:22.344Z,2
2022-09-29T16:35:22.952Z,2
2022-09-29T16:36:34.444Z,2
2022-09-29T16:37:28.705Z,2
2022-09-29T16:38:28.409Z,2
2022-09-29T16:39:22.049Z,2
2022-09-29T16:40:27.594Z,2
2022-09-29T16:41:23.315Z,2
2022-09-29T16:42:22.858Z,1
2022-09-29T16:43:22.859Z,2
2022-09-29T16:44:32.534Z,2
2022-09-29T16:45:24.871Z,1
2022-09-29T16:46:20.962Z,1
2022-09-29T16:47:31.840Z,1
2022-09-29T16:48:30.508Z,1
2022-09-29T16:49:23.496Z,1
2022-09-29T16:50:25.568Z,1
2022-09-29T16:51:40.624Z,1
2022-09-29T16:52:26.543Z,1
2022-09-29T16:53:20.771Z,1
2022-09-29T16:54:31.126Z,1
2022-09-29T16:55:28.876Z,1
2022-09-29T16:56:22.777Z,1
2022-09-29T16:57:26.942Z,1
2022-09-29T16:58:30.984Z,1
2022-09-29T16:59:25.553Z,1
2022-09-29T17:00:22.629Z,1
2022-09-29T17:01:22.720Z,1
2022-09-29T17:02:28.158Z,1
2022-09-29T17:03:27.591Z,0
2022-09-29T17:04:26.391Z,0
2022-09-29T17:05:29.247Z,0